sensor_id;sensor_type;location;lat;lon;timestamp;pressure;altitude;pressure_sealevel;temperature;humidity
37710;BME280;60223;34.854;-92.408;2022-11-02T00:01:52;101244.26;;;23.77;31.95
37710;BME280;60223;34.854;-92.408;2022-11-02T00:04:16;101245.01;;;23.81;31.88
37710;BME280;60223;34.854;-92.408;2022-11-02T00:16:27;101258.62;;;24.18;32.10
37710;BME280;60223;34.854;-92.408;2022-11-02T00:18:52;101264.55;;;23.33;32.49
37710;BME280;60223;34.854;-92.408;2022-11-02T00:21:18;101268.98;;;23.55;32.26
37710;BME280;60223;34.854;-92.408;2022-11-02T00:23:43;101272.92;;;23.63;32.13
37710;BME280;60223;34.854;-92.408;2022-11-02T00:26:08;101273.23;;;23.60;32.19
37710;BME280;60223;34.854;-92.408;2022-11-02T00:28:34;101276.56;;;23.85;31.90
37710;BME280;60223;34.854;-92.408;2022-11-02T00:31:00;101273.19;;;23.91;32.13
37710;BME280;60223;34.854;-92.408;2022-11-02T00:33:24;101277.76;;;23.72;32.08
37710;BME280;60223;34.854;-92.408;2022-11-02T00:35:51;101280.39;;;23.70;32.11
37710;BME280;60223;34.854;-92.408;2022-11-02T00:38:17;101282.97;;;23.83;31.94
37710;BME280;60223;34.854;-92.408;2022-11-02T00:40:42;101288.35;;;23.74;32.05
37710;BME280;60223;34.854;-92.408;2022-11-02T00:43:07;101291.94;;;23.83;31.94
37710;BME280;60223;34.854;-92.408;2022-11-02T00:47:59;101278.04;;;23.86;31.90
37710;BME280;60223;34.854;-92.408;2022-11-02T00:50:22;101268.43;;;23.83;31.96
37710;BME280;60223;34.854;-92.408;2022-11-02T00:52:50;101260.31;;;23.95;31.81
37710;BME280;60223;34.854;-92.408;2022-11-02T00:55:15;101260.06;;;23.82;31.97
37710;BME280;60223;34.854;-92.408;2022-11-02T00:57:41;101258.85;;;23.64;32.18
37710;BME280;60223;34.854;-92.408;2022-11-02T01:00:06;101257.41;;;23.88;32.19
37710;BME280;60223;34.854;-92.408;2022-11-02T01:02:32;101257.90;;;23.72;32.10
37710;BME280;60223;34.854;-92.408;2022-11-02T01:04:58;101253.39;;;23.53;32.31
37710;BME280;60223;34.854;-92.408;2022-11-02T01:07:24;101251.96;;;24.00;32.05
37710;BME280;60223;34.854;-92.408;2022-11-02T01:09:50;101250.77;;;23.99;32.04
37710;BME280;60223;34.854;-92.408;2022-11-02T01:12:15;101251.41;;;23.67;32.16
37710;BME280;60223;34.854;-92.408;2022-11-02T01:14:39;101249.49;;;23.87;32.23
37710;BME280;60223;34.854;-92.408;2022-11-02T01:17:06;101254.28;;;23.83;32.26
37710;BME280;60223;34.854;-92.408;2022-11-02T01:19:31;101261.03;;;23.56;32.31
37710;BME280;60223;34.854;-92.408;2022-11-02T01:21:57;101260.46;;;23.77;32.32
37710;BME280;60223;34.854;-92.408;2022-11-02T01:24:20;101267.07;;;23.34;32.29
37710;BME280;60223;34.854;-92.408;2022-11-02T01:26:52;101278.86;;;23.60;32.26
37710;BME280;60223;34.854;-92.408;2022-11-02T01:29:14;101280.11;;;24.13;32.21
37710;BME280;60223;34.854;-92.408;2022-11-02T01:31:40;101280.61;;;23.49;32.41
37710;BME280;60223;34.854;-92.408;2022-11-02T01:34:06;101278.28;;;23.52;32.36
37710;BME280;60223;34.854;-92.408;2022-11-02T01:36:31;101274.73;;;23.73;32.13
37710;BME280;60223;34.854;-92.408;2022-11-02T01:38:56;101274.53;;;23.33;32.33
37710;BME280;60223;34.854;-92.408;2022-11-02T01:41:22;101275.90;;;23.88;32.24
37710;BME280;60223;34.854;-92.408;2022-11-02T01:43:53;101278.12;;;23.71;32.16
37710;BME280;60223;34.854;-92.408;2022-11-02T01:46:19;101279.88;;;23.53;32.35
37710;BME280;60223;34.854;-92.408;2022-11-02T01:48:40;101284.96;;;23.76;32.11
37710;BME280;60223;34.854;-92.408;2022-11-02T01:51:05;101283.10;;;23.57;32.31
37710;BME280;60223;34.854;-92.408;2022-11-02T01:53:32;101282.36;;;23.62;32.23
37710;BME280;60223;34.854;-92.408;2022-11-02T01:58:20;101281.83;;;23.48;32.43
37710;BME280;60223;34.854;-92.408;2022-11-02T02:00:46;101284.06;;;23.60;32.30
37710;BME280;60223;34.854;-92.408;2022-11-02T02:03:13;101286.11;;;23.40;32.50
37710;BME280;60223;34.854;-92.408;2022-11-02T02:05:43;101283.47;;;23.47;32.42
37710;BME280;60223;34.854;-92.408;2022-11-02T02:08:04;101278.78;;;23.81;32.31
37710;BME280;60223;34.854;-92.408;2022-11-02T02:10:29;101274.65;;;23.51;32.34
37710;BME280;60223;34.854;-92.408;2022-11-02T02:12:55;101279.54;;;23.46;32.40
37710;BME280;60223;34.854;-92.408;2022-11-02T02:15:21;101279.96;;;23.50;32.34
37710;BME280;60223;34.854;-92.408;2022-11-02T02:17:51;101279.13;;;23.57;32.29
37710;BME280;60223;34.854;-92.408;2022-11-02T02:20:19;101279.92;;;23.38;32.49
37710;BME280;60223;34.854;-92.408;2022-11-02T02:22:55;101283.45;;;23.25;32.64
37710;BME280;60223;34.854;-92.408;2022-11-02T02:25:14;101283.95;;;23.52;32.62
37710;BME280;60223;34.854;-92.408;2022-11-02T02:30:03;101291.50;;;23.30;32.61
37710;BME280;60223;34.854;-92.408;2022-11-02T02:32:25;101292.56;;;23.43;32.44
37710;BME280;60223;34.854;-92.408;2022-11-02T02:34:51;101286.80;;;23.57;32.55
37710;BME280;60223;34.854;-92.408;2022-11-02T02:37:16;101286.63;;;23.42;32.74
37710;BME280;60223;34.854;-92.408;2022-11-02T02:39:42;101284.54;;;23.67;32.42
37710;BME280;60223;34.854;-92.408;2022-11-02T02:42:04;101288.07;;;23.25;32.64
37710;BME280;60223;34.854;-92.408;2022-11-02T02:44:31;101295.02;;;23.29;32.60
37710;BME280;60223;34.854;-92.408;2022-11-02T02:46:55;101294.95;;;23.14;32.76
37710;BME280;60223;34.854;-92.408;2022-11-02T02:49:24;101293.77;;;23.20;32.69
37710;BME280;60223;34.854;-92.408;2022-11-02T02:51:43;101291.51;;;23.01;32.90
37710;BME280;60223;34.854;-92.408;2022-11-02T02:54:13;101286.76;;;23.06;32.83
37710;BME280;60223;34.854;-92.408;2022-11-02T02:56:39;101284.93;;;23.71;32.65
37710;BME280;60223;34.854;-92.408;2022-11-02T02:59:01;101286.83;;;23.27;32.59
37710;BME280;60223;34.854;-92.408;2022-11-02T03:01:28;101285.54;;;23.13;32.74
37710;BME280;60223;34.854;-92.408;2022-11-02T03:03:53;101285.44;;;23.23;32.62
37710;BME280;60223;34.854;-92.408;2022-11-02T03:06:19;101284.66;;;23.46;32.61
37710;BME280;60223;34.854;-92.408;2022-11-02T03:08:47;101285.16;;;23.33;32.47
37710;BME280;60223;34.854;-92.408;2022-11-02T03:11:15;101288.88;;;23.30;32.78
37710;BME280;60223;34.854;-92.408;2022-11-02T03:13:46;101302.64;;;23.26;32.58
37710;BME280;60223;34.854;-92.408;2022-11-02T03:16:05;101305.47;;;23.20;32.63
37710;BME280;60223;34.854;-92.408;2022-11-02T03:18:30;101306.60;;;23.25;32.57
37710;BME280;60223;34.854;-92.408;2022-11-02T03:20:57;101305.18;;;23.28;32.50
37710;BME280;60223;34.854;-92.408;2022-11-02T03:23:19;101304.13;;;23.39;32.66
37710;BME280;60223;34.854;-92.408;2022-11-02T03:25:49;101305.69;;;23.27;32.54
37710;BME280;60223;34.854;-92.408;2022-11-02T03:28:09;101305.57;;;23.17;32.63
37710;BME280;60223;34.854;-92.408;2022-11-02T03:30:41;101314.14;;;23.61;32.40
37710;BME280;60223;34.854;-92.408;2022-11-02T03:33:03;101311.16;;;23.91;32.27
37710;BME280;60223;34.854;-92.408;2022-11-02T03:35:29;101312.56;;;23.63;32.31
37710;BME280;60223;34.854;-92.408;2022-11-02T03:37:57;101313.70;;;23.36;32.36
37710;BME280;60223;34.854;-92.408;2022-11-02T03:40:19;101313.77;;;23.19;32.54
37710;BME280;60223;34.854;-92.408;2022-11-02T03:42:39;101311.95;;;23.33;32.39
37710;BME280;60223;34.854;-92.408;2022-11-02T03:45:11;101312.89;;;23.48;32.21
37710;BME280;60223;34.854;-92.408;2022-11-02T03:47:32;101315.82;;;23.23;32.47
37710;BME280;60223;34.854;-92.408;2022-11-02T03:49:58;101312.25;;;23.43;32.24
37710;BME280;60223;34.854;-92.408;2022-11-02T03:52:28;101315.73;;;23.43;32.21
37710;BME280;60223;34.854;-92.408;2022-11-02T03:54:52;101311.73;;;23.93;32.18
37710;BME280;60223;34.854;-92.408;2022-11-02T03:57:20;101308.67;;;24.05;32.04
37710;BME280;60223;34.854;-92.408;2022-11-02T03:59:40;101308.30;;;24.03;32.10
37710;BME280;60223;34.854;-92.408;2022-11-02T04:02:08;101304.96;;;23.83;32.01
37710;BME280;60223;34.854;-92.408;2022-11-02T04:04:32;101299.99;;;23.29;32.33
37710;BME280;60223;34.854;-92.408;2022-11-02T04:06:57;101301.60;;;23.86;32.25
37710;BME280;60223;34.854;-92.408;2022-11-02T04:09:22;101299.01;;;23.49;32.10
37710;BME280;60223;34.854;-92.408;2022-11-02T04:11:46;101294.73;;;23.35;32.25
37710;BME280;60223;34.854;-92.408;2022-11-02T04:14:13;101294.80;;;23.30;32.28
37710;BME280;60223;34.854;-92.408;2022-11-02T04:16:38;101300.70;;;23.63;32.19
37710;BME280;60223;34.854;-92.408;2022-11-02T04:19:05;101308.17;;;23.42;32.11
37710;BME280;60223;34.854;-92.408;2022-11-02T04:21:30;101314.65;;;23.61;32.16
37710;BME280;60223;34.854;-92.408;2022-11-02T04:23:53;101317.39;;;23.45;32.07
37710;BME280;60223;34.854;-92.408;2022-11-02T04:26:21;101315.69;;;23.21;32.34
37710;BME280;60223;34.854;-92.408;2022-11-02T04:28:46;101318.93;;;23.25;32.28
37710;BME280;60223;34.854;-92.408;2022-11-02T04:31:12;101321.29;;;23.24;32.29
37710;BME280;60223;34.854;-92.408;2022-11-02T04:33:37;101321.34;;;23.51;32.26
37710;BME280;60223;34.854;-92.408;2022-11-02T04:36:06;101317.24;;;23.29;32.24
37710;BME280;60223;34.854;-92.408;2022-11-02T04:38:29;101315.72;;;23.48;32.26
37710;BME280;60223;34.854;-92.408;2022-11-02T04:40:55;101313.91;;;23.31;32.46
37710;BME280;60223;34.854;-92.408;2022-11-02T04:43:21;101308.61;;;23.23;32.28
37710;BME280;60223;34.854;-92.408;2022-11-02T04:45:44;101305.23;;;23.52;32.48
37710;BME280;60223;34.854;-92.408;2022-11-02T04:48:10;101311.98;;;23.28;32.21
37710;BME280;60223;34.854;-92.408;2022-11-02T04:51:01;101311.43;;;23.23;32.24
37710;BME280;60223;34.854;-92.408;2022-11-02T04:53:04;101310.09;;;23.14;32.34
37710;BME280;60223;34.854;-92.408;2022-11-02T04:55:29;101315.63;;;23.13;32.33
37710;BME280;60223;34.854;-92.408;2022-11-02T04:57:54;101321.27;;;23.07;32.38
37710;BME280;60223;34.854;-92.408;2022-11-02T05:00:20;101319.91;;;23.03;32.67
37710;BME280;60223;34.854;-92.408;2022-11-02T05:02:45;101318.37;;;23.26;32.17
37710;BME280;60223;34.854;-92.408;2022-11-02T05:05:11;101317.39;;;23.08;32.31
37710;BME280;60223;34.854;-92.408;2022-11-02T05:07:36;101316.28;;;23.39;32.28
37710;BME280;60223;34.854;-92.408;2022-11-02T05:10:02;101324.67;;;23.07;32.61
37710;BME280;60223;34.854;-92.408;2022-11-02T05:12:27;101326.67;;;23.14;32.23
37710;BME280;60223;34.854;-92.408;2022-11-02T05:14:52;101322.28;;;23.10;32.26
37710;BME280;60223;34.854;-92.408;2022-11-02T05:17:17;101322.43;;;23.27;32.32
37710;BME280;60223;34.854;-92.408;2022-11-02T05:19:43;101321.97;;;22.89;32.50
37710;BME280;60223;34.854;-92.408;2022-11-02T05:22:09;101323.58;;;23.59;31.94
37710;BME280;60223;34.854;-92.408;2022-11-02T05:24:33;101326.68;;;23.08;32.22
37710;BME280;60223;34.854;-92.408;2022-11-02T05:29:23;101327.99;;;23.40;32.41
37710;BME280;60223;34.854;-92.408;2022-11-02T05:31:51;101331.49;;;23.20;32.10
37710;BME280;60223;34.854;-92.408;2022-11-02T05:34:16;101335.28;;;23.07;32.45
37710;BME280;60223;34.854;-92.408;2022-11-02T05:36:42;101333.98;;;23.23;32.28
37710;BME280;60223;34.854;-92.408;2022-11-02T05:39:07;101334.32;;;23.54;32.22
37710;BME280;60223;34.854;-92.408;2022-11-02T05:41:32;101339.41;;;23.71;31.98
37710;BME280;60223;34.854;-92.408;2022-11-02T05:43:58;101346.68;;;23.40;32.08
37710;BME280;60223;34.854;-92.408;2022-11-02T05:46:22;101346.82;;;23.10;32.37
37710;BME280;60223;34.854;-92.408;2022-11-02T05:48:49;101347.44;;;23.11;32.36
37710;BME280;60223;34.854;-92.408;2022-11-02T05:51:15;101350.41;;;22.99;32.26
37710;BME280;60223;34.854;-92.408;2022-11-02T05:53:40;101352.23;;;22.65;32.60
37710;BME280;60223;34.854;-92.408;2022-11-02T05:56:08;101357.36;;;22.89;32.32
37710;BME280;60223;34.854;-92.408;2022-11-02T05:58:32;101359.47;;;22.99;32.44
37710;BME280;60223;34.854;-92.408;2022-11-02T06:00:57;101355.55;;;23.17;32.26
37710;BME280;60223;34.854;-92.408;2022-11-02T06:03:23;101353.52;;;23.37;32.03
37710;BME280;60223;34.854;-92.408;2022-11-02T06:08:14;101348.69;;;23.02;32.15
37710;BME280;60223;34.854;-92.408;2022-11-02T06:10:40;101348.82;;;22.90;32.21
37710;BME280;60223;34.854;-92.408;2022-11-02T06:13:05;101351.27;;;23.57;31.99
37710;BME280;60223;34.854;-92.408;2022-11-02T06:15:30;101348.29;;;23.38;32.21
37710;BME280;60223;34.854;-92.408;2022-11-02T06:17:56;101349.20;;;23.42;32.15
37710;BME280;60223;34.854;-92.408;2022-11-02T06:20:21;101352.62;;;23.60;31.90
37710;BME280;60223;34.854;-92.408;2022-11-02T06:22:47;101356.67;;;23.24;32.06
37710;BME280;60223;34.854;-92.408;2022-11-02T06:25:13;101357.47;;;23.07;32.21
37710;BME280;60223;34.854;-92.408;2022-11-02T06:27:36;101358.15;;;23.55;31.95
37710;BME280;60223;34.854;-92.408;2022-11-02T06:30:04;101354.62;;;23.00;32.01
37710;BME280;60223;34.854;-92.408;2022-11-02T06:32:30;101353.41;;;23.66;31.54
37710;BME280;60223;34.854;-92.408;2022-11-02T06:34:55;101358.16;;;23.66;31.76
37710;BME280;60223;34.854;-92.408;2022-11-02T06:37:21;101360.53;;;23.22;32.00
37710;BME280;60223;34.854;-92.408;2022-11-02T06:39:46;101359.38;;;23.07;31.87
37710;BME280;60223;34.854;-92.408;2022-11-02T06:42:10;101359.31;;;23.48;31.92
37710;BME280;60223;34.854;-92.408;2022-11-02T06:44:38;101360.22;;;23.04;32.16
37710;BME280;60223;34.854;-92.408;2022-11-02T06:47:03;101360.87;;;23.49;31.93
37710;BME280;60223;34.854;-92.408;2022-11-02T06:49:29;101360.85;;;23.15;31.72
37710;BME280;60223;34.854;-92.408;2022-11-02T06:51:55;101367.10;;;23.44;31.90
37710;BME280;60223;34.854;-92.408;2022-11-02T06:54:17;101373.55;;;23.58;31.74
37710;BME280;60223;34.854;-92.408;2022-11-02T06:56:45;101372.83;;;23.09;32.06
37710;BME280;60223;34.854;-92.408;2022-11-02T06:59:11;101371.81;;;23.52;31.80
37710;BME280;60223;34.854;-92.408;2022-11-02T07:01:37;101375.54;;;23.78;31.52
37710;BME280;60223;34.854;-92.408;2022-11-02T07:04:00;101374.89;;;23.48;31.82
37710;BME280;60223;34.854;-92.408;2022-11-02T07:06:28;101378.74;;;23.33;31.70
37710;BME280;60223;34.854;-92.408;2022-11-02T07:08:53;101381.25;;;22.73;32.10
37710;BME280;60223;34.854;-92.408;2022-11-02T07:11:19;101382.98;;;22.53;32.33
37710;BME280;60223;34.854;-92.408;2022-11-02T07:13:45;101379.31;;;23.60;31.39
37710;BME280;60223;34.854;-92.408;2022-11-02T07:16:09;101381.98;;;23.36;31.65
37710;BME280;60223;34.854;-92.408;2022-11-02T07:18:36;101378.87;;;23.63;31.58
37710;BME280;60223;34.854;-92.408;2022-11-02T07:21:01;101378.85;;;23.57;31.63
37710;BME280;60223;34.854;-92.408;2022-11-02T07:23:27;101377.63;;;23.82;31.59
37710;BME280;60223;34.854;-92.408;2022-11-02T07:25:53;101376.49;;;23.26;31.68
37710;BME280;60223;34.854;-92.408;2022-11-02T07:28:15;101379.06;;;23.78;31.39
37710;BME280;60223;34.854;-92.408;2022-11-02T07:30:44;101380.40;;;23.32;31.60
37710;BME280;60223;34.854;-92.408;2022-11-02T07:33:07;101381.88;;;23.77;31.36
37710;BME280;60223;34.854;-92.408;2022-11-02T07:35:34;101383.97;;;23.34;31.51
37710;BME280;60223;34.854;-92.408;2022-11-02T07:38:03;101387.28;;;23.45;31.63
37710;BME280;60223;34.854;-92.408;2022-11-02T07:40:26;101387.82;;;23.61;31.46
37710;BME280;60223;34.854;-92.408;2022-11-02T07:42:51;101385.35;;;23.74;31.29
37710;BME280;60223;34.854;-92.408;2022-11-02T07:45:17;101385.80;;;23.54;31.51
37710;BME280;60223;34.854;-92.408;2022-11-02T07:47:45;101384.61;;;23.24;31.57
37710;BME280;60223;34.854;-92.408;2022-11-02T07:50:09;101378.63;;;23.72;31.28
37710;BME280;60223;34.854;-92.408;2022-11-02T07:52:34;101375.53;;;23.20;31.35
37710;BME280;60223;34.854;-92.408;2022-11-02T07:55:02;101379.22;;;23.88;31.09
37710;BME280;60223;34.854;-92.408;2022-11-02T07:57:25;101379.80;;;23.08;31.64
37710;BME280;60223;34.854;-92.408;2022-11-02T07:59:51;101379.26;;;24.01;30.93
37710;BME280;60223;34.854;-92.408;2022-11-02T08:02:14;101379.15;;;23.63;31.33
37710;BME280;60223;34.854;-92.408;2022-11-02T08:04:42;101375.98;;;23.88;31.02
37710;BME280;60223;34.854;-92.408;2022-11-02T08:07:07;101375.27;;;23.62;31.27
37710;BME280;60223;34.854;-92.408;2022-11-02T08:09:33;101378.46;;;23.75;31.17
37710;BME280;60223;34.854;-92.408;2022-11-02T08:11:59;101380.72;;;23.75;31.12
37710;BME280;60223;34.854;-92.408;2022-11-02T08:14:24;101378.45;;;23.70;31.19
37710;BME280;60223;34.854;-92.408;2022-11-02T08:16:50;101378.68;;;23.04;31.35
37710;BME280;60223;34.854;-92.408;2022-11-02T08:19:15;101379.18;;;23.30;31.34
37710;BME280;60223;34.854;-92.408;2022-11-02T08:21:40;101376.43;;;23.36;31.24
37710;BME280;60223;34.854;-92.408;2022-11-02T08:24:07;101371.70;;;23.68;31.12
37710;BME280;60223;34.854;-92.408;2022-11-02T08:26:31;101370.30;;;23.76;31.05
37710;BME280;60223;34.854;-92.408;2022-11-02T08:28:56;101374.92;;;23.51;31.29
37710;BME280;60223;34.854;-92.408;2022-11-02T08:31:22;101382.54;;;23.64;31.16
37710;BME280;60223;34.854;-92.408;2022-11-02T08:33:48;101387.22;;;23.99;30.75
37710;BME280;60223;34.854;-92.408;2022-11-02T08:36:14;101386.43;;;23.37;31.15
37710;BME280;60223;34.854;-92.408;2022-11-02T08:38:39;101382.79;;;23.95;30.75
37710;BME280;60223;34.854;-92.408;2022-11-02T08:41:04;101378.91;;;23.84;30.88
37710;BME280;60223;34.854;-92.408;2022-11-02T08:43:27;101377.54;;;23.82;30.88
37710;BME280;60223;34.854;-92.408;2022-11-02T08:45:59;101379.94;;;23.40;31.32
37710;BME280;60223;34.854;-92.408;2022-11-02T08:48:21;101376.17;;;23.20;31.51
37710;BME280;60223;34.854;-92.408;2022-11-02T08:50:47;101379.92;;;23.64;31.05
37710;BME280;60223;34.854;-92.408;2022-11-02T08:53:09;101381.71;;;23.56;31.13
37710;BME280;60223;34.854;-92.408;2022-11-02T08:55:34;101382.33;;;23.36;31.05
37710;BME280;60223;34.854;-92.408;2022-11-02T08:58:01;101384.02;;;23.87;30.77
37710;BME280;60223;34.854;-92.408;2022-11-02T09:00:29;101388.34;;;23.58;31.03
37710;BME280;60223;34.854;-92.408;2022-11-02T09:02:59;101389.83;;;23.87;30.75
37710;BME280;60223;34.854;-92.408;2022-11-02T09:05:16;101389.90;;;23.51;30.82
37710;BME280;60223;34.854;-92.408;2022-11-02T09:07:44;101389.09;;;23.78;30.76
37710;BME280;60223;34.854;-92.408;2022-11-02T09:10:09;101387.63;;;23.77;30.77
37710;BME280;60223;34.854;-92.408;2022-11-02T09:12:36;101384.34;;;23.51;31.01
37710;BME280;60223;34.854;-92.408;2022-11-02T09:15:01;101382.35;;;23.15;31.14
37710;BME280;60223;34.854;-92.408;2022-11-02T09:17:27;101386.06;;;23.82;30.68
37710;BME280;60223;34.854;-92.408;2022-11-02T09:19:52;101387.11;;;23.23;30.79
37710;BME280;60223;34.854;-92.408;2022-11-02T09:22:16;101393.25;;;23.88;30.81
37710;BME280;60223;34.854;-92.408;2022-11-02T09:24:43;101396.37;;;23.84;30.59
37710;BME280;60223;34.854;-92.408;2022-11-02T09:27:08;101397.82;;;23.53;30.91
37710;BME280;60223;34.854;-92.408;2022-11-02T09:29:35;101399.04;;;23.72;30.66
37710;BME280;60223;34.854;-92.408;2022-11-02T09:32:00;101399.64;;;23.43;30.98
37710;BME280;60223;34.854;-92.408;2022-11-02T09:34:24;101402.28;;;23.40;31.01
37710;BME280;60223;34.854;-92.408;2022-11-02T09:36:51;101403.48;;;23.63;31.00
37710;BME280;60223;34.854;-92.408;2022-11-02T09:39:16;101403.02;;;23.36;30.76
37710;BME280;60223;34.854;-92.408;2022-11-02T09:41:46;101400.86;;;23.79;30.52
37710;BME280;60223;34.854;-92.408;2022-11-02T09:44:12;101397.80;;;23.33;31.00
37710;BME280;60223;34.854;-92.408;2022-11-02T09:46:35;101394.16;;;23.37;30.97
37710;BME280;60223;34.854;-92.408;2022-11-02T09:49:02;101391.38;;;23.40;30.88
37710;BME280;60223;34.854;-92.408;2022-11-02T09:51:26;101394.59;;;23.40;30.90
37710;BME280;60223;34.854;-92.408;2022-11-02T09:53:57;101397.99;;;23.58;30.71
37710;BME280;60223;34.854;-92.408;2022-11-02T09:56:16;101402.41;;;23.59;30.66
37710;BME280;60223;34.854;-92.408;2022-11-02T09:58:40;101407.24;;;23.78;30.41
37710;BME280;60223;34.854;-92.408;2022-11-02T10:01:16;101408.67;;;23.64;30.56
37710;BME280;60223;34.854;-92.408;2022-11-02T10:03:41;101408.68;;;23.63;30.59
37710;BME280;60223;34.854;-92.408;2022-11-02T10:06:01;101412.58;;;23.73;30.44
37710;BME280;60223;34.854;-92.408;2022-11-02T10:08:30;101418.80;;;23.22;31.01
37710;BME280;60223;34.854;-92.408;2022-11-02T10:10:58;101419.66;;;23.59;30.55
37710;BME280;60223;34.854;-92.408;2022-11-02T10:13:22;101418.96;;;23.92;30.22
37710;BME280;60223;34.854;-92.408;2022-11-02T10:15:44;101419.80;;;23.71;30.42
37710;BME280;60223;34.854;-92.408;2022-11-02T10:18:07;101420.28;;;23.26;30.92
37710;BME280;60223;34.854;-92.408;2022-11-02T10:20:36;101423.22;;;24.10;30.21
37710;BME280;60223;34.854;-92.408;2022-11-02T10:22:56;101429.46;;;23.74;30.32
37710;BME280;60223;34.854;-92.408;2022-11-02T10:25:21;101434.13;;;23.76;30.28
37710;BME280;60223;34.854;-92.408;2022-11-02T10:27:48;101443.39;;;23.58;30.47
37710;BME280;60223;34.854;-92.408;2022-11-02T10:30:16;101444.83;;;23.75;30.26
37710;BME280;60223;34.854;-92.408;2022-11-02T10:32:38;101447.46;;;23.52;30.21
37710;BME280;60223;34.854;-92.408;2022-11-02T10:35:11;101449.10;;;23.83;30.16
37710;BME280;60223;34.854;-92.408;2022-11-02T10:37:39;101449.65;;;23.48;30.54
37710;BME280;60223;34.854;-92.408;2022-11-02T10:40:00;101448.60;;;23.46;30.80
37710;BME280;60223;34.854;-92.408;2022-11-02T10:42:30;101450.88;;;23.51;30.47
37710;BME280;60223;34.854;-92.408;2022-11-02T10:45:01;101446.94;;;23.78;30.37
37710;BME280;60223;34.854;-92.408;2022-11-02T10:47:15;101446.49;;;23.47;30.46
37710;BME280;60223;34.854;-92.408;2022-11-02T10:49:44;101447.00;;;23.72;30.44
37710;BME280;60223;34.854;-92.408;2022-11-02T10:52:01;101447.52;;;24.09;30.02
37710;BME280;60223;34.854;-92.408;2022-11-02T10:54:28;101451.64;;;23.73;30.16
37710;BME280;60223;34.854;-92.408;2022-11-02T10:56:52;101455.46;;;23.90;30.19
37710;BME280;60223;34.854;-92.408;2022-11-02T10:59:18;101452.85;;;24.09;29.98
37710;BME280;60223;34.854;-92.408;2022-11-02T11:04:18;101456.85;;;23.35;30.51
37710;BME280;60223;34.854;-92.408;2022-11-02T11:06:35;101460.22;;;23.37;30.73
37710;BME280;60223;34.854;-92.408;2022-11-02T11:09:14;101462.96;;;22.98;30.87
37710;BME280;60223;34.854;-92.408;2022-11-02T11:11:27;101463.57;;;23.68;30.33
37710;BME280;60223;34.854;-92.408;2022-11-02T11:13:58;101464.84;;;23.81;30.21
37710;BME280;60223;34.854;-92.408;2022-11-02T11:16:16;101463.11;;;23.27;30.47
37710;BME280;60223;34.854;-92.408;2022-11-02T11:18:42;101462.40;;;23.67;30.06
37710;BME280;60223;34.854;-92.408;2022-11-02T11:21:07;101460.73;;;24.07;29.88
37710;BME280;60223;34.854;-92.408;2022-11-02T11:23:34;101463.74;;;23.04;30.70
37710;BME280;60223;34.854;-92.408;2022-11-02T11:26:00;101465.32;;;23.75;30.17
37710;BME280;60223;34.854;-92.408;2022-11-02T11:28:27;101466.53;;;23.52;30.40
37710;BME280;60223;34.854;-92.408;2022-11-02T11:33:19;101474.20;;;23.28;30.35
37710;BME280;60223;34.854;-92.408;2022-11-02T11:35:45;101474.64;;;23.44;30.22
37710;BME280;60223;34.854;-92.408;2022-11-02T11:38:17;101473.65;;;23.30;30.30
37710;BME280;60223;34.854;-92.408;2022-11-02T11:40:38;101474.64;;;23.38;30.21
37710;BME280;60223;34.854;-92.408;2022-11-02T11:42:59;101477.23;;;23.62;30.21
37710;BME280;60223;34.854;-92.408;2022-11-02T11:45:26;101482.27;;;23.71;30.07
37710;BME280;60223;34.854;-92.408;2022-11-02T11:47:50;101482.58;;;22.88;30.66
37710;BME280;60223;34.854;-92.408;2022-11-02T11:50:16;101485.55;;;23.73;30.30
37710;BME280;60223;34.854;-92.408;2022-11-02T11:52:40;101490.77;;;23.71;30.05
37710;BME280;60223;34.854;-92.408;2022-11-02T11:55:19;101492.12;;;23.67;30.08
37710;BME280;60223;34.854;-92.408;2022-11-02T11:57:31;101492.99;;;23.40;30.10
37710;BME280;60223;34.854;-92.408;2022-11-02T11:59:57;101492.14;;;23.30;30.19
37710;BME280;60223;34.854;-92.408;2022-11-02T12:02:25;101490.09;;;23.06;30.66
37710;BME280;60223;34.854;-92.408;2022-11-02T12:04:47;101488.30;;;23.34;30.38
37710;BME280;60223;34.854;-92.408;2022-11-02T12:07:28;101481.94;;;23.14;30.50
37710;BME280;60223;34.854;-92.408;2022-11-02T12:09:41;101479.05;;;22.86;30.84
37710;BME280;60223;34.854;-92.408;2022-11-02T12:12:09;101482.95;;;23.15;30.29
37710;BME280;60223;34.854;-92.408;2022-11-02T12:14:39;101482.01;;;23.41;30.23
37710;BME280;60223;34.854;-92.408;2022-11-02T12:17:08;101483.10;;;23.22;30.42
37710;BME280;60223;34.854;-92.408;2022-11-02T12:19:28;101482.67;;;22.91;30.77
37710;BME280;60223;34.854;-92.408;2022-11-02T12:21:57;101486.85;;;23.26;30.33
37710;BME280;60223;34.854;-92.408;2022-11-02T12:24:33;101488.41;;;23.09;30.26
37710;BME280;60223;34.854;-92.408;2022-11-02T12:36:30;101494.37;;;22.87;30.64
37710;BME280;60223;34.854;-92.408;2022-11-02T12:38:52;101497.38;;;23.26;30.24
37710;BME280;60223;34.854;-92.408;2022-11-02T12:41:15;101497.42;;;23.06;30.44
37710;BME280;60223;34.854;-92.408;2022-11-02T12:44:08;101495.35;;;22.86;30.59
37710;BME280;60223;34.854;-92.408;2022-11-02T12:46:07;101497.64;;;22.79;30.42
37710;BME280;60223;34.854;-92.408;2022-11-02T12:48:30;101497.72;;;22.76;30.44
37710;BME280;60223;34.854;-92.408;2022-11-02T12:50:58;101500.26;;;23.32;30.36
37710;BME280;60223;34.854;-92.408;2022-11-02T12:53:35;101507.35;;;23.23;29.93
37710;BME280;60223;34.854;-92.408;2022-11-02T12:55:46;101514.58;;;23.24;30.41
37710;BME280;60223;34.854;-92.408;2022-11-02T12:58:14;101517.21;;;23.33;29.82